createdAt,value
2016-03-22T00:00:00.639Z,-8.9
2016-03-22T00:00:14.783Z,-8.95
2016-03-22T00:00:28.861Z,-8.9
2016-03-22T00:00:43.142Z,-8.86
2016-03-22T00:00:57.142Z,-8.87
2016-03-22T00:01:11.129Z,-8.9
2016-03-22T00:01:25.426Z,-8.86
2016-03-22T00:01:39.395Z,-8.9
2016-03-22T00:01:53.770Z,-8.87
2016-03-22T00:02:07.928Z,-8.83
2016-03-22T00:02:22.225Z,-8.88
2016-03-22T00:02:36.491Z,-8.87
2016-03-22T00:02:50.756Z,-8.86
2016-03-22T00:03:03.897Z,-8.91
2016-03-22T00:03:21.713Z,-8.9
2016-03-22T00:03:35.932Z,-8.95
2016-03-22T00:03:49.995Z,-8.91
2016-03-22T00:04:04.401Z,-8.96
2016-03-22T00:04:18.262Z,-8.98
2016-03-22T00:04:32.715Z,-8.98
2016-03-22T00:04:46.887Z,-8.95
2016-03-22T00:05:29.046Z,-8.98
2016-03-22T00:05:43.327Z,-8.95
2016-03-22T00:05:57.280Z,-8.88
2016-03-22T00:06:11.425Z,-8.91
2016-03-22T00:06:25.737Z,-8.96
2016-03-22T00:06:39.846Z,-8.91
2016-03-22T00:06:54.315Z,-8.86
2016-03-22T00:07:08.348Z,-8.88
2016-03-22T00:07:22.692Z,-8.86
2016-03-22T00:07:36.661Z,-8.88
2016-03-22T00:07:51.130Z,-8.86
2016-03-22T00:08:05.366Z,-9.02
2016-03-22T00:08:19.554Z,-9.01
2016-03-22T00:08:33.804Z,-8.98
2016-03-22T00:08:48.241Z,-9.02
2016-03-22T00:09:02.491Z,-8.99
2016-03-22T00:09:16.853Z,-8.96
2016-03-22T00:09:31.088Z,-8.9
2016-03-22T00:09:45.213Z,-8.91
2016-03-22T00:09:59.510Z,-9.01
2016-03-22T00:10:13.997Z,-8.94
2016-03-22T00:10:28.231Z,-8.9
2016-03-22T00:10:42.247Z,-8.91
2016-03-22T00:10:56.341Z,-8.99
2016-03-22T00:11:10.109Z,-8.98
2016-03-22T00:11:24.094Z,-9.02
2016-03-22T00:11:38.297Z,-8.91
2016-03-22T00:11:52.750Z,-8.91
2016-03-22T00:12:06.987Z,-8.94
2016-03-22T00:12:21.269Z,-8.86
2016-03-22T00:12:36.253Z,-8.96
2016-03-22T00:12:50.394Z,-8.91
2016-03-22T00:13:04.737Z,-8.94
2016-03-22T00:13:18.114Z,-8.99
2016-03-22T00:13:32.021Z,-9.02
2016-03-22T00:13:45.989Z,-9.05
2016-03-22T00:14:00.177Z,-8.98
2016-03-22T00:14:14.179Z,-9.09
2016-03-22T00:14:28.757Z,-9.13
2016-03-22T00:14:42.054Z,-9.17
2016-03-22T00:14:56.023Z,-9.29
2016-03-22T00:15:10.183Z,-9.25
2016-03-22T00:15:24.324Z,-9.25
2016-03-22T00:15:38.292Z,-9.25
2016-03-22T00:15:52.277Z,-9.25
2016-03-22T00:16:06.560Z,-9.16
2016-03-22T00:16:20.826Z,-9.15
2016-03-22T00:16:35.232Z,-9.12
2016-03-22T00:16:49.372Z,-9.17
2016-03-22T00:17:03.294Z,-9.29
2016-03-22T00:17:17.624Z,-9.25
2016-03-22T00:17:32.296Z,-9.41
2016-03-22T00:17:46.609Z,-9.37
2016-03-22T00:18:01.078Z,-9.45
2016-03-22T00:18:15.238Z,-9.5
2016-03-22T00:18:29.410Z,-9.52
2016-03-22T00:18:43.628Z,-9.52
2016-03-22T00:18:57.738Z,-9.52
2016-03-22T00:19:11.787Z,-9.53
2016-03-22T00:19:25.912Z,-9.53
2016-03-22T00:19:40.021Z,-9.68
2016-03-22T00:19:53.974Z,-9.53
2016-03-22T00:20:07.321Z,-9.53
2016-03-22T00:20:21.571Z,-9.57
2016-03-22T00:20:35.993Z,-9.57
2016-03-22T00:20:50.008Z,-9.5
2016-03-22T00:21:04.508Z,-9.53
2016-03-22T00:21:19.011Z,-9.63
2016-03-22T00:21:33.058Z,-9.6
2016-03-22T00:21:47.293Z,-9.44
2016-03-22T00:22:01.230Z,-9.48
2016-03-22T00:22:15.373Z,-9.47
2016-03-22T00:22:29.451Z,-9.57
2016-03-22T00:22:43.357Z,-9.66
2016-03-22T00:22:57.654Z,-9.6
2016-03-22T00:23:11.454Z,-9.57
2016-03-22T00:23:25.673Z,-9.63
2016-03-22T00:23:39.938Z,-9.52
2016-03-22T00:23:54.313Z,-9.48
2016-03-22T00:24:08.613Z,-9.5
2016-03-22T00:24:22.801Z,-9.47
2016-03-22T00:24:36.379Z,-9.41
2016-03-22T00:24:50.738Z,-9.41
2016-03-22T00:25:05.051Z,-9.45
2016-03-22T00:25:19.412Z,-9.36
2016-03-22T00:25:33.490Z,-9.33
2016-03-22T00:25:47.975Z,-9.31
2016-03-22T00:26:01.553Z,-9.2
2016-03-22T00:26:15.603Z,-9.25
2016-03-22T00:26:29.665Z,-9.27
2016-03-22T00:26:58.056Z,-9.15
2016-03-22T00:27:12.715Z,-9.22
2016-03-22T00:27:26.824Z,-9.23
2016-03-22T00:27:40.996Z,-9.29
2016-03-22T00:27:55.121Z,-9.27
2016-03-22T00:28:08.983Z,-9.2
2016-03-22T00:28:23.014Z,-9.13
2016-03-22T00:28:37.264Z,-9.17
2016-03-22T00:28:51.342Z,-9.19
2016-03-22T00:29:05.501Z,-9.13
2016-03-22T00:29:19.611Z,-9.13
2016-03-22T00:29:33.782Z,-9.09
2016-03-22T00:29:47.907Z,-9.19
2016-03-22T00:30:02.179Z,-9.19
2016-03-22T00:30:16.409Z,-9.25
2016-03-22T00:30:31.019Z,-9.27
2016-03-22T00:30:45.050Z,-9.22
2016-03-22T00:30:59.519Z,-9.27
2016-03-22T00:31:13.631Z,-9.25
2016-03-22T00:31:27.912Z,-9.31
2016-03-22T00:31:42.194Z,-9.33
2016-03-22T00:31:56.287Z,-9.26
2016-03-22T00:32:10.508Z,-9.33
2016-03-22T00:32:38.711Z,-9.29
2016-03-22T00:32:52.789Z,-9.25
2016-03-22T00:33:07.027Z,-9.31
2016-03-22T00:33:21.902Z,-9.34
2016-03-22T00:33:36.152Z,-9.27
2016-03-22T00:33:50.339Z,-9.29
2016-03-22T00:34:04.542Z,-9.26
2016-03-22T00:34:18.874Z,-9.23
2016-03-22T00:34:33.061Z,-9.27
2016-03-22T00:34:47.077Z,-9.41
2016-03-22T00:35:01.045Z,-9.27
2016-03-22T00:35:14.641Z,-9.27
2016-03-22T00:35:28.782Z,-9.27
2016-03-22T00:35:43.672Z,-9.26
2016-03-22T00:35:57.891Z,-9.4
2016-03-22T00:36:12.613Z,-9.37
2016-03-22T00:36:26.660Z,-9.41
2016-03-22T00:36:40.769Z,-9.47
2016-03-22T00:36:54.957Z,-9.5
2016-03-22T00:37:09.037Z,-9.44
2016-03-22T00:37:23.334Z,-9.53
2016-03-22T00:37:37.537Z,-9.56
2016-03-22T00:37:51.756Z,-9.57
2016-03-22T00:38:05.994Z,-9.48
2016-03-22T00:38:20.056Z,-9.62
2016-03-22T00:38:48.150Z,-9.74
2016-03-22T00:39:02.619Z,-9.74
2016-03-22T00:39:16.965Z,-9.74
2016-03-22T00:39:31.371Z,-9.88
2016-03-22T00:39:45.277Z,-9.8
2016-03-22T00:39:59.512Z,-9.78
2016-03-22T00:40:16.593Z,-9.73
2016-03-22T00:40:30.890Z,-9.78
2016-03-22T00:40:45.218Z,-9.76
2016-03-22T00:40:59.405Z,-9.74
2016-03-22T00:41:13.548Z,-9.74
2016-03-22T00:41:27.642Z,-9.71
2016-03-22T00:41:41.985Z,-9.71
2016-03-22T00:41:56.267Z,-9.76
2016-03-22T00:42:10.348Z,-9.78
2016-03-22T00:42:24.723Z,-9.83
2016-03-22T00:42:38.895Z,-9.77
2016-03-22T00:42:53.129Z,-9.92
2016-03-22T00:43:07.226Z,-10.12
2016-03-22T00:43:21.523Z,-10.06
2016-03-22T00:43:34.991Z,-10.07
2016-03-22T00:43:49.257Z,-10.04
2016-03-22T00:44:03.351Z,-10.09
2016-03-22T00:44:17.509Z,-10.07
2016-03-22T00:44:32.118Z,-10.17
2016-03-22T00:44:46.306Z,-10.17
2016-03-22T00:45:14.387Z,-10.27
2016-03-22T00:45:28.746Z,-10.44
2016-03-22T00:45:42.996Z,-10.38
2016-03-22T00:45:57.106Z,-10.36
2016-03-22T00:46:11.249Z,-10.34
2016-03-22T00:46:25.499Z,-10.34
2016-03-22T00:46:39.749Z,-10.31
2016-03-22T00:46:53.843Z,-10.4
2016-03-22T00:47:07.877Z,-10.36
2016-03-22T00:47:24.971Z,-10.44
2016-03-22T00:47:39.096Z,-10.44
2016-03-22T00:47:53.940Z,-10.47
2016-03-22T00:48:08.223Z,-10.45
2016-03-22T00:48:22.754Z,-10.48
2016-03-22T00:48:36.832Z,-10.52
2016-03-22T00:48:50.739Z,-10.48
2016-03-22T00:49:04.973Z,-10.57
2016-03-22T00:49:19.179Z,-10.47
2016-03-22T00:49:33.226Z,-10.49
2016-03-22T00:49:47.085Z,-10.48
2016-03-22T00:50:01.226Z,-10.45
2016-03-22T00:50:15.448Z,-10.54
2016-03-22T00:50:30.042Z,-10.47
2016-03-22T00:50:44.292Z,-10.41
2016-03-22T00:50:58.510Z,-10.54
2016-03-22T00:51:12.622Z,-10.45
2016-03-22T00:51:25.919Z,-10.51
2016-03-22T00:51:40.231Z,-10.49
2016-03-22T00:51:54.606Z,-10.41
2016-03-22T00:52:08.922Z,-10.52
2016-03-22T00:52:23.140Z,-10.4
2016-03-22T00:52:37.562Z,-10.47
2016-03-22T00:52:52.047Z,-10.47
2016-03-22T00:53:06.049Z,-10.36
2016-03-22T00:53:20.345Z,-10.33
2016-03-22T00:53:33.783Z,-10.38
2016-03-22T00:53:47.892Z,-10.34
2016-03-22T00:54:01.986Z,-10.33
2016-03-22T00:54:16.271Z,-10.36
2016-03-22T00:54:30.724Z,-10.33
2016-03-22T00:54:44.943Z,-10.38
2016-03-22T00:54:59.318Z,-10.44
2016-03-22T00:55:13.617Z,-10.4
2016-03-22T00:55:28.101Z,-10.37
2016-03-22T00:55:42.445Z,-10.31
2016-03-22T00:55:56.445Z,-10.34
2016-03-22T00:56:10.683Z,-10.4
2016-03-22T00:56:24.229Z,-10.37
2016-03-22T00:56:38.214Z,-10.38
2016-03-22T00:56:52.792Z,-10.37
2016-03-22T00:57:06.778Z,-10.44
2016-03-22T00:57:20.794Z,-10.38
2016-03-22T00:57:35.060Z,-10.31
2016-03-22T00:57:49.278Z,-10.34
2016-03-22T00:58:03.356Z,-10.37
2016-03-22T00:58:17.609Z,-10.33
2016-03-22T00:58:31.922Z,-10.4
2016-03-22T00:58:46.016Z,-10.41
2016-03-22T00:59:00.438Z,-10.38
2016-03-22T00:59:14.627Z,-10.38
2016-03-22T00:59:29.065Z,-10.36
2016-03-22T00:59:43.236Z,-10.38
2016-03-22T00:59:57.705Z,-10.33
2016-03-22T01:00:11.819Z,-10.37
2016-03-22T01:00:26.287Z,-10.31
2016-03-22T01:00:40.756Z,-10.31
2016-03-22T01:00:54.194Z,-10.51
2016-03-22T01:01:08.524Z,-10.44
2016-03-22T01:01:22.774Z,-10.37
2016-03-22T01:01:37.524Z,-10.49
2016-03-22T01:01:51.774Z,-10.37
2016-03-22T01:02:06.057Z,-10.47
2016-03-22T01:02:20.119Z,-10.31
2016-03-22T01:02:34.073Z,-10.38
2016-03-22T01:02:48.401Z,-10.41
2016-03-22T01:03:02.557Z,-10.44
2016-03-22T01:03:18.920Z,-10.44
2016-03-22T01:03:32.967Z,-10.38
2016-03-22T01:03:47.452Z,-10.34
2016-03-22T01:04:01.717Z,-10.28
2016-03-22T01:04:29.688Z,-10.37
2016-03-22T01:04:43.610Z,-10.31
2016-03-22T01:04:58.141Z,-10.36
2016-03-22T01:05:12.238Z,-10.36
2016-03-22T01:05:26.363Z,-10.37
2016-03-22T01:05:40.910Z,-10.38
2016-03-22T01:05:55.222Z,-10.4
2016-03-22T01:06:09.381Z,-10.37
2016-03-22T01:06:51.585Z,-10.44
2016-03-22T01:07:06.212Z,-10.48
2016-03-22T01:07:20.102Z,-10.34
2016-03-22T01:07:34.165Z,-10.37
2016-03-22T01:07:48.446Z,-10.49
2016-03-22T01:08:02.774Z,-10.52
2016-03-22T01:08:17.261Z,-10.45
2016-03-22T01:08:31.449Z,-10.33
2016-03-22T01:08:45.433Z,-10.44
2016-03-22T01:08:59.746Z,-10.49
2016-03-22T01:09:13.811Z,-10.37
2016-03-22T01:09:28.311Z,-10.41
2016-03-22T01:09:42.233Z,-10.51
2016-03-22T01:09:56.249Z,-10.49
2016-03-22T01:10:10.141Z,-10.4
2016-03-22T01:10:24.188Z,-10.45
2016-03-22T01:10:38.032Z,-10.38
2016-03-22T01:10:52.282Z,-10.45
2016-03-22T01:11:06.723Z,-10.37
2016-03-22T01:11:20.988Z,-10.4
2016-03-22T01:11:35.269Z,-10.45
2016-03-22T01:11:49.066Z,-10.47
2016-03-22T01:12:03.269Z,-10.41
2016-03-22T01:12:17.304Z,-10.4
2016-03-22T01:12:31.585Z,-10.4
2016-03-22T01:12:45.835Z,-10.44
2016-03-22T01:13:00.241Z,-10.41
2016-03-22T01:13:14.259Z,-10.49
2016-03-22T01:13:28.509Z,-10.45
2016-03-22T01:13:56.665Z,-10.37
2016-03-22T01:14:10.903Z,-10.34
2016-03-22T01:14:24.653Z,-10.36
2016-03-22T01:14:38.732Z,-10.37
2016-03-22T01:14:52.950Z,-10.37
2016-03-22T01:15:06.937Z,-10.4
2016-03-22T01:15:21.030Z,-10.38
2016-03-22T01:15:35.202Z,-10.36
2016-03-22T01:15:49.265Z,-10.26
2016-03-22T01:16:03.202Z,-10.4
2016-03-22T01:16:17.627Z,-10.38
2016-03-22T01:16:31.971Z,-10.37
2016-03-22T01:16:46.252Z,-10.41
2016-03-22T01:17:00.643Z,-10.34
2016-03-22T01:17:14.832Z,-10.4
2016-03-22T01:17:28.145Z,-10.37
2016-03-22T01:17:42.098Z,-10.34
2016-03-22T01:17:56.535Z,-10.4
2016-03-22T01:18:10.648Z,-10.36
2016-03-22T01:18:39.007Z,-10.37
2016-03-22T01:18:53.304Z,-10.44
2016-03-22T01:19:07.634Z,-10.41
2016-03-22T01:19:21.681Z,-10.37
2016-03-22T01:19:35.759Z,-10.31
2016-03-22T01:19:49.072Z,-10.37
2016-03-22T01:20:03.103Z,-10.34
2016-03-22T01:20:17.215Z,-10.4
2016-03-22T01:20:31.278Z,-10.23
2016-03-22T01:20:45.278Z,-10.37
2016-03-22T01:20:59.809Z,-10.31
2016-03-22T01:21:14.140Z,-10.48
2016-03-22T01:21:28.218Z,-10.44
2016-03-22T01:21:42.375Z,-10.34
2016-03-22T01:21:56.671Z,-10.45
2016-03-22T01:22:10.720Z,-10.49
2016-03-22T01:22:24.877Z,-10.41
2016-03-22T01:22:38.939Z,-10.4
2016-03-22T01:22:53.345Z,-10.36
2016-03-22T01:23:07.334Z,-10.37
2016-03-22T01:23:21.412Z,-10.44
2016-03-22T01:23:35.881Z,-10.36
2016-03-22T01:23:50.021Z,-10.47
2016-03-22T01:24:03.052Z,-10.34
2016-03-22T01:24:17.086Z,-10.4
2016-03-22T01:24:31.429Z,-10.51
2016-03-22T01:24:44.883Z,-10.47
2016-03-22T01:25:13.416Z,-10.47
2016-03-22T01:25:27.697Z,-10.52
2016-03-22T01:25:42.041Z,-10.52
2016-03-22T01:25:56.291Z,-10.44
2016-03-22T01:26:10.576Z,-10.51
2016-03-22T01:26:24.764Z,-10.51
2016-03-22T01:26:39.014Z,-10.58
2016-03-22T01:26:53.326Z,-10.57
2016-03-22T01:27:07.578Z,-10.58
2016-03-22T01:27:21.641Z,-10.68
2016-03-22T01:27:35.703Z,-10.69
2016-03-22T01:27:49.937Z,-10.7
2016-03-22T01:28:04.203Z,-10.65
2016-03-22T01:28:18.190Z,-10.65
2016-03-22T01:28:32.284Z,-10.58
2016-03-22T01:28:47.019Z,-10.55
2016-03-22T01:29:01.425Z,-10.59
2016-03-22T01:29:15.489Z,-10.59
2016-03-22T01:29:29.771Z,-10.61
2016-03-22T01:29:43.974Z,-10.58
2016-03-22T01:29:58.286Z,-10.55
2016-03-22T01:30:12.414Z,-10.44
2016-03-22T01:30:26.883Z,-10.55
2016-03-22T01:30:55.102Z,-10.49
2016-03-22T01:31:09.198Z,-10.45
2016-03-22T01:31:23.011Z,-10.44
2016-03-22T01:31:51.136Z,-10.44
2016-03-22T01:32:04.823Z,-10.47
2016-03-22T01:32:18.748Z,-10.45
2016-03-22T01:32:32.780Z,-10.44
2016-03-22T01:32:46.701Z,-10.51
2016-03-22T01:33:00.936Z,-10.45
2016-03-22T01:33:15.610Z,-10.47
2016-03-22T01:33:32.907Z,-10.45
2016-03-22T01:33:46.985Z,-10.45
2016-03-22T01:34:01.688Z,-10.4
2016-03-22T01:34:15.988Z,-10.57
2016-03-22T01:34:29.488Z,-10.58
2016-03-22T01:34:43.706Z,-10.55
2016-03-22T01:34:57.691Z,-10.57
2016-03-22T01:35:11.756Z,-10.61
2016-03-22T01:35:25.756Z,-10.61
2016-03-22T01:35:39.928Z,-10.7
2016-03-22T01:36:07.993Z,-10.65
2016-03-22T01:36:22.165Z,-10.65
2016-03-22T01:36:36.602Z,-10.7
2016-03-22T01:36:50.477Z,-10.68
2016-03-22T01:37:04.493Z,-10.69
2016-03-22T01:37:18.777Z,-10.65
2016-03-22T01:37:33.027Z,-10.66
2016-03-22T01:37:46.261Z,-10.69
2016-03-22T01:38:00.558Z,-10.73
2016-03-22T01:38:14.623Z,-10.7
2016-03-22T01:38:29.060Z,-10.69
2016-03-22T01:38:57.232Z,-10.75
2016-03-22T01:39:11.658Z,-10.66
2016-03-22T01:39:25.783Z,-10.69
2016-03-22T01:39:40.330Z,-10.63
2016-03-22T01:39:54.517Z,-10.69
2016-03-22T01:40:08.582Z,-10.68
2016-03-22T01:40:21.957Z,-10.72
2016-03-22T01:40:35.972Z,-10.66
2016-03-22T01:40:50.144Z,-10.69
2016-03-22T01:41:04.222Z,-10.7
2016-03-22T01:41:18.429Z,-10.69
2016-03-22T01:41:32.788Z,-10.58
2016-03-22T01:41:46.866Z,-10.58
2016-03-22T01:42:00.929Z,-10.69
2016-03-22T01:42:15.212Z,-10.65
2016-03-22T01:42:29.181Z,-10.65
2016-03-22T01:42:43.274Z,-10.7
2016-03-22T01:42:57.321Z,-10.7
2016-03-22T01:43:11.730Z,-10.7
2016-03-22T01:43:26.074Z,-10.63
2016-03-22T01:43:40.230Z,-10.65
2016-03-22T01:43:54.449Z,-10.68
2016-03-22T01:44:08.749Z,-10.68
2016-03-22T01:44:23.124Z,-10.68
2016-03-22T01:44:37.296Z,-10.65
2016-03-22T01:44:52.140Z,-10.59
2016-03-22T01:45:05.952Z,-10.54
2016-03-22T01:45:20.189Z,-10.49
2016-03-22T01:45:34.501Z,-10.54
2016-03-22T01:45:48.610Z,-10.52
2016-03-22T01:46:02.595Z,-10.58
2016-03-22T01:46:16.473Z,-10.52
2016-03-22T01:46:30.676Z,-10.57
2016-03-22T01:46:45.035Z,-10.57
2016-03-22T01:46:59.270Z,-10.59
2016-03-22T01:47:13.975Z,-10.51
2016-03-22T01:47:28.084Z,-10.55
2016-03-22T01:47:42.162Z,-10.52
2016-03-22T01:48:24.635Z,-10.65
2016-03-22T01:48:38.323Z,-10.57
2016-03-22T01:48:51.604Z,-10.58
2016-03-22T01:49:05.619Z,-10.58
2016-03-22T01:49:19.871Z,-10.65
2016-03-22T01:49:36.903Z,-10.69
2016-03-22T01:49:50.934Z,-10.68
2016-03-22T01:50:04.996Z,-10.72
2016-03-22T01:50:19.046Z,-10.7
2016-03-22T01:50:33.187Z,-10.69
2016-03-22T01:50:47.499Z,-10.73
2016-03-22T01:51:01.281Z,-10.69
2016-03-22T01:51:15.471Z,-10.7
2016-03-22T01:51:29.721Z,-10.66
2016-03-22T01:51:43.706Z,-10.76
2016-03-22T01:51:58.127Z,-10.68
2016-03-22T01:52:12.348Z,-10.75
2016-03-22T01:52:26.645Z,-10.66
2016-03-22T01:52:41.083Z,-10.69
2016-03-22T01:52:58.083Z,-10.66
2016-03-22T01:53:12.242Z,-10.73
2016-03-22T01:53:40.398Z,-10.68
2016-03-22T01:53:54.492Z,-10.66
2016-03-22T01:54:08.651Z,-10.54
2016-03-22T01:54:23.276Z,-10.58
2016-03-22T01:54:37.573Z,-10.49
2016-03-22T01:54:51.510Z,-10.54
2016-03-22T01:55:05.885Z,-10.51
2016-03-22T01:55:20.247Z,-10.47
2016-03-22T01:55:34.231Z,-10.44
2016-03-22T01:56:02.231Z,-10.47
2016-03-22T01:56:16.203Z,-10.52
2016-03-22T01:56:30.578Z,-10.44
2016-03-22T01:56:44.687Z,-10.45
2016-03-22T01:56:58.640Z,-10.49
2016-03-22T01:57:12.843Z,-10.45
2016-03-22T01:57:27.171Z,-10.52
2016-03-22T01:57:41.561Z,-10.58
2016-03-22T01:57:56.030Z,-10.55
2016-03-22T01:58:10.269Z,-10.66
2016-03-22T01:58:24.660Z,-10.66
2016-03-22T01:58:38.785Z,-10.63
2016-03-22T01:58:53.113Z,-10.65
2016-03-22T01:59:07.587Z,-10.79
2016-03-22T01:59:20.947Z,-10.73
2016-03-22T01:59:35.087Z,-10.75
2016-03-22T01:59:49.259Z,-10.73
2016-03-22T02:00:03.556Z,-10.76
2016-03-22T02:00:17.748Z,-10.79
2016-03-22T02:00:32.076Z,-10.79
2016-03-22T02:00:46.232Z,-10.76
2016-03-22T02:01:00.326Z,-10.85
2016-03-22T02:01:14.487Z,-10.79
2016-03-22T02:01:28.737Z,-10.81
2016-03-22T02:01:43.221Z,-10.81
2016-03-22T02:01:57.237Z,-10.83
2016-03-22T02:02:11.495Z,-10.72
2016-03-22T02:02:25.542Z,-10.87
2016-03-22T02:02:39.885Z,-10.78
2016-03-22T02:02:54.104Z,-10.85
2016-03-22T02:03:07.164Z,-10.85
2016-03-22T02:03:21.101Z,-10.79
2016-03-22T02:03:35.460Z,-10.73
2016-03-22T02:03:49.304Z,-10.75
2016-03-22T02:04:03.976Z,-10.79
2016-03-22T02:04:18.177Z,-10.69
2016-03-22T02:04:32.505Z,-10.72
2016-03-22T02:04:46.677Z,-10.63
2016-03-22T02:05:00.677Z,-10.61
2016-03-22T02:05:14.972Z,-10.76
2016-03-22T02:05:28.550Z,-10.65
2016-03-22T02:05:42.660Z,-10.66
2016-03-22T02:05:56.878Z,-10.59
2016-03-22T02:06:11.313Z,-10.69
2016-03-22T02:06:25.453Z,-10.72
2016-03-22T02:06:39.438Z,-10.65
2016-03-22T02:06:53.703Z,-10.76
2016-03-22T02:07:08.187Z,-10.73
2016-03-22T02:07:22.312Z,-10.76
2016-03-22T02:07:36.343Z,-10.79
2016-03-22T02:07:50.374Z,-10.87
2016-03-22T02:08:04.577Z,-10.81
2016-03-22T02:08:18.642Z,-10.85
2016-03-22T02:08:32.704Z,-10.91
2016-03-22T02:08:46.986Z,-10.88
2016-03-22T02:09:01.173Z,-10.83
2016-03-22T02:09:15.392Z,-10.78
2016-03-22T02:09:29.298Z,-10.78
2016-03-22T02:09:43.642Z,-10.87
2016-03-22T02:09:57.986Z,-10.83
2016-03-22T02:10:12.112Z,-10.85
2016-03-22T02:10:26.174Z,-10.85
2016-03-22T02:10:40.409Z,-10.85
2016-03-22T02:10:54.502Z,-10.83
2016-03-22T02:11:09.598Z,-10.83
2016-03-22T02:11:23.864Z,-10.76
2016-03-22T02:11:37.817Z,-10.89
2016-03-22T02:11:51.817Z,-10.92
2016-03-22T02:12:06.192Z,-10.94
2016-03-22T02:12:20.287Z,-10.99
2016-03-22T02:12:34.490Z,-11.03
2016-03-22T02:12:48.849Z,-10.94
2016-03-22T02:13:03.412Z,-10.98
2016-03-22T02:13:17.459Z,-11.02
2016-03-22T02:13:32.147Z,-10.97
2016-03-22T02:13:45.725Z,-10.99
2016-03-22T02:13:59.959Z,-11.03
2016-03-22T02:14:14.086Z,-11.02
2016-03-22T02:14:28.149Z,-11.06
2016-03-22T02:14:42.743Z,-10.99
2016-03-22T02:14:56.946Z,-10.98
2016-03-22T02:15:11.261Z,-11.03
2016-03-22T02:15:25.230Z,-10.97
2016-03-22T02:15:39.121Z,-11.09
2016-03-22T02:15:52.980Z,-11.1
2016-03-22T02:16:07.137Z,-11.06
2016-03-22T02:16:20.794Z,-11.12
2016-03-22T02:16:34.965Z,-11.1
2016-03-22T02:16:49.200Z,-11.1
2016-03-22T02:17:03.434Z,-11.09
2016-03-22T02:17:17.484Z,-11.08
2016-03-22T02:17:31.593Z,-11.08
2016-03-22T02:17:45.812Z,-11.13
2016-03-22T02:17:59.875Z,-11.09
2016-03-22T02:18:14.268Z,-11.09
2016-03-22T02:18:28.550Z,-11.12
2016-03-22T02:18:42.596Z,-11.08
2016-03-22T02:18:56.940Z,-11.12
2016-03-22T02:19:11.114Z,-11.03
2016-03-22T02:19:25.958Z,-11.06
2016-03-22T02:19:40.130Z,-11.06
2016-03-22T02:19:54.130Z,-11.06
2016-03-22T02:20:08.289Z,-11.1
2016-03-22T02:20:22.664Z,-11.05
2016-03-22T02:20:36.836Z,-11.06
2016-03-22T02:20:50.789Z,-11.13
2016-03-22T02:21:05.476Z,-11.13
2016-03-22T02:21:19.464Z,-11.12
2016-03-22T02:21:33.698Z,-11.13
2016-03-22T02:21:48.042Z,-11.2
2016-03-22T02:22:02.308Z,-11.21
2016-03-22T02:22:16.247Z,-11.12
2016-03-22T02:22:30.685Z,-11.15
2016-03-22T02:22:44.669Z,-11.15
2016-03-22T02:22:58.856Z,-11.09
2016-03-22T02:23:16.031Z,-11.13
2016-03-22T02:23:30.281Z,-11.09
2016-03-22T02:23:44.813Z,-11.15
2016-03-22T02:24:13.175Z,-11.12
2016-03-22T02:24:27.284Z,-11.12
2016-03-22T02:24:41.316Z,-11.08
2016-03-22T02:24:55.644Z,-11.12
2016-03-22T02:25:09.708Z,-11.18
2016-03-22T02:25:24.239Z,-11.13
2016-03-22T02:25:38.474Z,-11.16
2016-03-22T02:25:52.505Z,-11.1
2016-03-22T02:26:06.521Z,-11.15
2016-03-22T02:26:20.727Z,-11.16
2016-03-22T02:26:34.961Z,-11.2
2016-03-22T02:26:49.086Z,-11.1
2016-03-22T02:27:03.430Z,-11.12
2016-03-22T02:27:17.667Z,-11.13
2016-03-22T02:27:31.980Z,-11.09
2016-03-22T02:27:46.183Z,-11.09
2016-03-22T02:28:00.495Z,-11.05
2016-03-22T02:28:13.857Z,-11.12
2016-03-22T02:28:28.185Z,-11.08
2016-03-22T02:28:42.372Z,-11.06
2016-03-22T02:28:59.560Z,-11.08
2016-03-22T02:29:13.907Z,-11.12
2016-03-22T02:29:28.594Z,-11.06
2016-03-22T02:29:42.907Z,-11.12
2016-03-22T02:29:57.188Z,-11.08
2016-03-22T02:30:11.258Z,-11.15
2016-03-22T02:30:25.461Z,-11.15
2016-03-22T02:30:39.571Z,-11.15
2016-03-22T02:30:53.680Z,-11.12
2016-03-22T02:31:08.338Z,-11.2
2016-03-22T02:31:22.682Z,-11.21
2016-03-22T02:31:36.260Z,-11.12
2016-03-22T02:31:50.651Z,-11.23
2016-03-22T02:32:04.745Z,-11.1
2016-03-22T02:32:18.466Z,-11.05
2016-03-22T02:32:32.763Z,-11.21
2016-03-22T02:32:46.982Z,-11.12
2016-03-22T02:33:01.154Z,-11.12
2016-03-22T02:33:15.579Z,-11.08
2016-03-22T02:33:29.704Z,-11.06
2016-03-22T02:33:43.751Z,-11.09
2016-03-22T02:33:57.204Z,-11.1
2016-03-22T02:34:11.253Z,-11.09
2016-03-22T02:34:25.425Z,-11.08
2016-03-22T02:34:39.768Z,-11.05
2016-03-22T02:34:54.003Z,-11.13
2016-03-22T02:35:08.132Z,-11.09
2016-03-22T02:35:22.647Z,-11.15
2016-03-22T02:35:36.897Z,-11.09
2016-03-22T02:35:51.257Z,-11.09
2016-03-22T02:36:05.366Z,-11.09
2016-03-22T02:36:19.681Z,-11.09
2016-03-22T02:36:33.837Z,-11.03
2016-03-22T02:36:47.977Z,-11.09
2016-03-22T02:37:02.227Z,-10.97
2016-03-22T02:37:15.651Z,-10.97
2016-03-22T02:37:29.995Z,-10.95
2016-03-22T02:37:43.745Z,-10.95
2016-03-22T02:37:58.058Z,-10.98
2016-03-22T02:38:12.029Z,-11.02
2016-03-22T02:38:26.373Z,-10.88
2016-03-22T02:38:40.451Z,-10.94
2016-03-22T02:38:54.482Z,-10.81
2016-03-22T02:39:08.907Z,-10.76
2016-03-22T02:39:22.564Z,-10.69
2016-03-22T02:39:38.876Z,-10.69
2016-03-22T02:39:53.001Z,-10.61
2016-03-22T02:40:07.001Z,-10.7
2016-03-22T02:40:21.003Z,-10.65
2016-03-22T02:40:35.300Z,-10.65
2016-03-22T02:40:49.550Z,-10.66
2016-03-22T02:41:02.941Z,-10.69
2016-03-22T02:41:17.132Z,-10.73
2016-03-22T02:41:31.132Z,-10.79
2016-03-22T02:41:45.460Z,-10.79
2016-03-22T02:41:59.648Z,-10.75
2016-03-22T02:42:13.603Z,-10.73
2016-03-22T02:42:27.728Z,-10.83
2016-03-22T02:43:09.839Z,-10.78
2016-03-22T02:43:24.120Z,-10.91
2016-03-22T02:43:38.214Z,-10.88
2016-03-22T02:43:52.558Z,-10.97
2016-03-22T02:44:07.089Z,-10.79
2016-03-22T02:44:21.390Z,-10.88
2016-03-22T02:44:35.859Z,-10.83
2016-03-22T02:44:50.046Z,-10.85
2016-03-22T02:45:04.031Z,-10.88
2016-03-22T02:45:17.970Z,-10.79
2016-03-22T02:45:32.236Z,-10.83
2016-03-22T02:45:46.298Z,-10.75
2016-03-22T02:46:00.423Z,-10.78
2016-03-22T02:46:14.550Z,-10.81
2016-03-22T02:46:28.222Z,-10.83
2016-03-22T02:46:42.410Z,-10.85
2016-03-22T02:46:56.300Z,-10.87
2016-03-22T02:47:10.553Z,-10.81
2016-03-22T02:47:24.475Z,-10.87
2016-03-22T02:47:38.631Z,-10.79
2016-03-22T02:47:52.756Z,-10.85
2016-03-22T02:48:06.928Z,-10.85
2016-03-22T02:48:20.994Z,-10.78
2016-03-22T02:48:34.963Z,-10.76
2016-03-22T02:48:49.228Z,-10.68
2016-03-22T02:49:03.416Z,-10.72
2016-03-22T02:49:17.747Z,-10.65
2016-03-22T02:49:31.872Z,-10.78
2016-03-22T02:49:46.247Z,-10.78
2016-03-22T02:50:00.450Z,-10.75
2016-03-22T02:50:15.094Z,-10.55
2016-03-22T02:50:29.422Z,-10.63
2016-03-22T02:50:43.594Z,-10.61
2016-03-22T02:50:56.953Z,-10.47
2016-03-22T02:51:11.205Z,-10.49
2016-03-22T02:51:24.642Z,-10.45
2016-03-22T02:51:38.580Z,-10.45
2016-03-22T02:51:52.908Z,-10.36
2016-03-22T02:52:07.189Z,-10.47
2016-03-22T02:52:21.395Z,-10.38
2016-03-22T02:53:03.739Z,-10.47
2016-03-22T02:53:17.820Z,-10.44
2016-03-22T02:53:31.977Z,-10.44
2016-03-22T02:53:46.117Z,-10.34
2016-03-22T02:54:00.445Z,-10.28
2016-03-22T02:54:14.650Z,-10.31
2016-03-22T02:54:28.697Z,-10.3
2016-03-22T02:54:43.072Z,-10.3
2016-03-22T02:54:57.463Z,-10.28
2016-03-22T02:55:11.622Z,-10.27
2016-03-22T02:55:25.169Z,-10.36
2016-03-22T02:55:39.278Z,-10.41
2016-03-22T02:55:53.169Z,-10.34
2016-03-22T02:56:07.138Z,-10.47
2016-03-22T02:56:21.297Z,-10.45
2016-03-22T02:56:49.735Z,-10.54
2016-03-22T02:57:03.969Z,-10.51
2016-03-22T02:57:18.097Z,-10.47
2016-03-22T02:57:32.144Z,-10.52
2016-03-22T02:57:46.159Z,-10.51
2016-03-22T02:58:00.300Z,-10.4
2016-03-22T02:58:14.427Z,-10.38
2016-03-22T02:58:28.443Z,-10.36
2016-03-22T02:58:42.536Z,-10.38
2016-03-22T02:58:56.724Z,-10.3
2016-03-22T02:59:10.914Z,-10.23
2016-03-22T02:59:25.227Z,-10.19
2016-03-22T02:59:39.414Z,-10.06
2016-03-22T02:59:53.336Z,-9.99
2016-03-22T03:00:07.368Z,-9.99
2016-03-22T03:00:21.620Z,-9.92
2016-03-22T03:00:35.729Z,-9.86
2016-03-22T03:00:49.979Z,-9.98
2016-03-22T03:01:04.526Z,-9.81
2016-03-22T03:01:18.623Z,-9.81
2016-03-22T03:01:32.935Z,-9.76
2016-03-22T03:01:47.248Z,-9.74
2016-03-22T03:02:01.248Z,-9.63
2016-03-22T03:02:15.251Z,-9.74
2016-03-22T03:02:29.360Z,-9.74
2016-03-22T03:02:43.657Z,-9.76
2016-03-22T03:02:57.766Z,-9.77
2016-03-22T03:03:12.284Z,-9.88
2016-03-22T03:03:26.409Z,-9.73
2016-03-22T03:03:40.503Z,-9.66
2016-03-22T03:03:54.831Z,-9.63
2016-03-22T03:04:08.990Z,-9.7
2016-03-22T03:04:22.052Z,-9.7
2016-03-22T03:04:36.115Z,-9.66
2016-03-22T03:04:50.318Z,-9.73
2016-03-22T03:05:04.240Z,-9.77